sensor_id;sensor_type;location;lat;lon;timestamp;pressure;altitude;pressure_sealevel;temperature
11424;BMP180;5768;51.476;7.210;2022-10-16T00:03:27;99780.00;;;16.90
11424;BMP180;5768;51.476;7.210;2022-10-16T00:08:29;99765.00;;;16.90
11424;BMP180;5768;51.476;7.210;2022-10-16T00:13:35;99790.00;;;16.90
11424;BMP180;5768;51.476;7.210;2022-10-16T00:18:38;99786.00;;;16.90
11424;BMP180;5768;51.476;7.210;2022-10-16T00:23:40;99789.00;;;16.90
11424;BMP180;5768;51.476;7.210;2022-10-16T00:28:46;99782.00;;;16.90
11424;BMP180;5768;51.476;7.210;2022-10-16T00:33:49;99791.00;;;16.90
11424;BMP180;5768;51.476;7.210;2022-10-16T00:38:52;99791.00;;;16.90
11424;BMP180;5768;51.476;7.210;2022-10-16T00:43:57;99798.00;;;16.90
11424;BMP180;5768;51.476;7.210;2022-10-16T00:49:03;99803.00;;;16.80
11424;BMP180;5768;51.476;7.210;2022-10-16T00:54:12;99801.00;;;16.80
11424;BMP180;5768;51.476;7.210;2022-10-16T00:59:29;99798.00;;;16.80
11424;BMP180;5768;51.476;7.210;2022-10-16T01:04:35;99799.00;;;16.80
11424;BMP180;5768;51.476;7.210;2022-10-16T01:09:49;99796.00;;;16.80
11424;BMP180;5768;51.476;7.210;2022-10-16T01:15:01;99794.00;;;16.80
11424;BMP180;5768;51.476;7.210;2022-10-16T01:20:15;99797.00;;;16.80
11424;BMP180;5768;51.476;7.210;2022-10-16T01:25:30;99799.00;;;16.70
11424;BMP180;5768;51.476;7.210;2022-10-16T01:30:37;99794.00;;;16.70
11424;BMP180;5768;51.476;7.210;2022-10-16T01:35:46;99801.00;;;16.60
11424;BMP180;5768;51.476;7.210;2022-10-16T01:41:00;99791.00;;;16.60
11424;BMP180;5768;51.476;7.210;2022-10-16T01:46:05;99801.00;;;16.50
11424;BMP180;5768;51.476;7.210;2022-10-16T01:51:12;99799.00;;;16.40
11424;BMP180;5768;51.476;7.210;2022-10-16T01:56:17;99796.00;;;16.40
11424;BMP180;5768;51.476;7.210;2022-10-16T02:01:26;99791.00;;;16.40
11424;BMP180;5768;51.476;7.210;2022-10-16T02:06:28;99793.00;;;16.50
11424;BMP180;5768;51.476;7.210;2022-10-16T02:11:32;99795.00;;;16.70
11424;BMP180;5768;51.476;7.210;2022-10-16T02:16:39;99802.00;;;16.80
11424;BMP180;5768;51.476;7.210;2022-10-16T02:21:46;99809.00;;;16.80
11424;BMP180;5768;51.476;7.210;2022-10-16T02:26:57;99806.00;;;16.70
11424;BMP180;5768;51.476;7.210;2022-10-16T02:32:06;99797.00;;;16.70
11424;BMP180;5768;51.476;7.210;2022-10-16T02:37:09;99807.00;;;16.80
11424;BMP180;5768;51.476;7.210;2022-10-16T02:42:12;99819.00;;;16.80
11424;BMP180;5768;51.476;7.210;2022-10-16T02:47:16;99810.00;;;16.80
11424;BMP180;5768;51.476;7.210;2022-10-16T02:52:18;99807.00;;;17.00
11424;BMP180;5768;51.476;7.210;2022-10-16T02:57:20;99811.00;;;17.10
11424;BMP180;5768;51.476;7.210;2022-10-16T03:02:24;99809.00;;;17.10
11424;BMP180;5768;51.476;7.210;2022-10-16T03:07:26;99810.00;;;17.20
11424;BMP180;5768;51.476;7.210;2022-10-16T03:12:29;99823.00;;;17.10
11424;BMP180;5768;51.476;7.210;2022-10-16T03:17:33;99818.00;;;17.00
11424;BMP180;5768;51.476;7.210;2022-10-16T03:22:35;99833.00;;;17.00
11424;BMP180;5768;51.476;7.210;2022-10-16T03:27:37;99818.00;;;17.00
11424;BMP180;5768;51.476;7.210;2022-10-16T03:32:41;99810.00;;;16.90
11424;BMP180;5768;51.476;7.210;2022-10-16T03:37:43;99807.00;;;16.90
11424;BMP180;5768;51.476;7.210;2022-10-16T03:42:45;99822.00;;;16.90
11424;BMP180;5768;51.476;7.210;2022-10-16T03:47:48;99812.00;;;16.80
11424;BMP180;5768;51.476;7.210;2022-10-16T03:52:51;99824.00;;;16.80
11424;BMP180;5768;51.476;7.210;2022-10-16T03:57:53;99830.00;;;16.70
11424;BMP180;5768;51.476;7.210;2022-10-16T04:02:56;99822.00;;;16.60
11424;BMP180;5768;51.476;7.210;2022-10-16T04:07:58;99822.00;;;16.50
11424;BMP180;5768;51.476;7.210;2022-10-16T04:13:01;99841.00;;;16.50
11424;BMP180;5768;51.476;7.210;2022-10-16T04:18:05;99837.00;;;16.50
11424;BMP180;5768;51.476;7.210;2022-10-16T04:23:07;99852.00;;;16.50
11424;BMP180;5768;51.476;7.210;2022-10-16T04:28:09;99849.00;;;16.40
11424;BMP180;5768;51.476;7.210;2022-10-16T04:33:13;99854.00;;;16.40
11424;BMP180;5768;51.476;7.210;2022-10-16T04:38:15;99865.00;;;16.40
11424;BMP180;5768;51.476;7.210;2022-10-16T04:43:17;99867.00;;;16.40
11424;BMP180;5768;51.476;7.210;2022-10-16T04:48:21;99877.00;;;16.40
11424;BMP180;5768;51.476;7.210;2022-10-16T04:53:23;99874.00;;;16.30
11424;BMP180;5768;51.476;7.210;2022-10-16T04:58:25;99871.00;;;16.40
11424;BMP180;5768;51.476;7.210;2022-10-16T05:03:28;99884.00;;;16.40
11424;BMP180;5768;51.476;7.210;2022-10-16T05:08:30;99895.00;;;16.40
11424;BMP180;5768;51.476;7.210;2022-10-16T05:13:32;99905.00;;;16.60
11424;BMP180;5768;51.476;7.210;2022-10-16T05:18:36;99914.00;;;16.70
11424;BMP180;5768;51.476;7.210;2022-10-16T05:23:38;99917.00;;;16.70
11424;BMP180;5768;51.476;7.210;2022-10-16T05:28:40;99906.00;;;16.60
11424;BMP180;5768;51.476;7.210;2022-10-16T05:33:44;99917.00;;;16.60
11424;BMP180;5768;51.476;7.210;2022-10-16T05:38:46;99922.00;;;16.60
11424;BMP180;5768;51.476;7.210;2022-10-16T05:43:52;99923.00;;;16.60
11424;BMP180;5768;51.476;7.210;2022-10-16T05:48:55;99930.00;;;16.60
11424;BMP180;5768;51.476;7.210;2022-10-16T05:53:57;99931.00;;;16.50
11424;BMP180;5768;51.476;7.210;2022-10-16T05:59:00;99941.00;;;16.50
11424;BMP180;5768;51.476;7.210;2022-10-16T06:04:03;99951.00;;;16.50
11424;BMP180;5768;51.476;7.210;2022-10-16T06:09:05;99956.00;;;16.50
11424;BMP180;5768;51.476;7.210;2022-10-16T06:14:08;99962.00;;;16.40
11424;BMP180;5768;51.476;7.210;2022-10-16T06:19:12;99977.00;;;16.40
11424;BMP180;5768;51.476;7.210;2022-10-16T06:24:14;99984.00;;;16.40
11424;BMP180;5768;51.476;7.210;2022-10-16T06:29:16;99974.00;;;16.40
11424;BMP180;5768;51.476;7.210;2022-10-16T06:34:19;99989.00;;;16.40
11424;BMP180;5768;51.476;7.210;2022-10-16T06:39:21;99987.00;;;16.50
11424;BMP180;5768;51.476;7.210;2022-10-16T06:44:23;100000.00;;;16.60
11424;BMP180;5768;51.476;7.210;2022-10-16T06:49:27;100003.00;;;16.70
11424;BMP180;5768;51.476;7.210;2022-10-16T06:54:32;100010.00;;;16.80
11424;BMP180;5768;51.476;7.210;2022-10-16T06:59:37;100018.00;;;16.80
11424;BMP180;5768;51.476;7.210;2022-10-16T07:04:40;100046.00;;;16.80
11424;BMP180;5768;51.476;7.210;2022-10-16T07:09:42;100056.00;;;16.70
11424;BMP180;5768;51.476;7.210;2022-10-16T07:14:45;100064.00;;;16.80
11424;BMP180;5768;51.476;7.210;2022-10-16T07:19:48;100074.00;;;16.80
11424;BMP180;5768;51.476;7.210;2022-10-16T07:24:53;100083.00;;;16.80
11424;BMP180;5768;51.476;7.210;2022-10-16T07:29:55;100086.00;;;16.80
11424;BMP180;5768;51.476;7.210;2022-10-16T07:34:58;100085.00;;;16.80
11424;BMP180;5768;51.476;7.210;2022-10-16T07:40:01;100094.00;;;16.80
11424;BMP180;5768;51.476;7.210;2022-10-16T07:45:04;100101.00;;;17.00
11424;BMP180;5768;51.476;7.210;2022-10-16T07:50:08;100098.00;;;17.20
11424;BMP180;5768;51.476;7.210;2022-10-16T07:55:10;100107.00;;;17.40
11424;BMP180;5768;51.476;7.210;2022-10-16T08:00:13;100133.00;;;17.60
11424;BMP180;5768;51.476;7.210;2022-10-16T08:05:16;100132.00;;;17.70
11424;BMP180;5768;51.476;7.210;2022-10-16T08:10:22;100137.00;;;17.80
11424;BMP180;5768;51.476;7.210;2022-10-16T08:15:25;100145.00;;;18.00
11424;BMP180;5768;51.476;7.210;2022-10-16T08:20:31;100156.00;;;18.10
11424;BMP180;5768;51.476;7.210;2022-10-16T08:25:35;100173.00;;;18.20
11424;BMP180;5768;51.476;7.210;2022-10-16T08:30:38;100178.00;;;18.40
11424;BMP180;5768;51.476;7.210;2022-10-16T08:35:42;100185.00;;;18.50
11424;BMP180;5768;51.476;7.210;2022-10-16T08:40:44;100183.00;;;18.60
11424;BMP180;5768;51.476;7.210;2022-10-16T08:46:23;100208.00;;;18.70
11424;BMP180;5768;51.476;7.210;2022-10-16T08:51:32;100207.00;;;18.70
11424;BMP180;5768;51.476;7.210;2022-10-16T08:56:34;100197.00;;;18.80
11424;BMP180;5768;51.476;7.210;2022-10-16T09:01:40;100224.00;;;18.90
11424;BMP180;5768;51.476;7.210;2022-10-16T09:06:47;100233.00;;;18.90
11424;BMP180;5768;51.476;7.210;2022-10-16T09:11:57;100238.00;;;19.00
11424;BMP180;5768;51.476;7.210;2022-10-16T09:17:18;100243.00;;;19.00
11424;BMP180;5768;51.476;7.210;2022-10-16T09:22:27;100251.00;;;19.10
11424;BMP180;5768;51.476;7.210;2022-10-16T09:27:30;100246.00;;;19.20
11424;BMP180;5768;51.476;7.210;2022-10-16T09:32:33;100245.00;;;19.40
11424;BMP180;5768;51.476;7.210;2022-10-16T09:37:36;100253.00;;;19.70
11424;BMP180;5768;51.476;7.210;2022-10-16T09:42:39;100265.00;;;19.80
11424;BMP180;5768;51.476;7.210;2022-10-16T09:47:43;100268.00;;;20.00
11424;BMP180;5768;51.476;7.210;2022-10-16T09:52:46;100259.00;;;19.90
11424;BMP180;5768;51.476;7.210;2022-10-16T09:57:49;100277.00;;;19.90
11424;BMP180;5768;51.476;7.210;2022-10-16T10:02:53;100263.00;;;20.00
11424;BMP180;5768;51.476;7.210;2022-10-16T10:07:59;100254.00;;;20.10
11424;BMP180;5768;51.476;7.210;2022-10-16T10:13:04;100265.00;;;20.10
11424;BMP180;5768;51.476;7.210;2022-10-16T10:18:18;100267.00;;;20.20
11424;BMP180;5768;51.476;7.210;2022-10-16T10:23:24;100270.00;;;20.40
11424;BMP180;5768;51.476;7.210;2022-10-16T10:28:50;100274.00;;;20.50
11424;BMP180;5768;51.476;7.210;2022-10-16T10:34:05;100273.00;;;20.50
11424;BMP180;5768;51.476;7.210;2022-10-16T10:39:21;100279.00;;;20.50
11424;BMP180;5768;51.476;7.210;2022-10-16T10:44:54;100287.00;;;20.50
11424;BMP180;5768;51.476;7.210;2022-10-16T10:50:12;100282.00;;;20.50
11424;BMP180;5768;51.476;7.210;2022-10-16T10:55:24;100285.00;;;20.60
11424;BMP180;5768;51.476;7.210;2022-10-16T11:00:42;100282.00;;;20.90
11424;BMP180;5768;51.476;7.210;2022-10-16T11:05:54;100288.00;;;21.20
11424;BMP180;5768;51.476;7.210;2022-10-16T11:11:05;100278.00;;;21.60
11424;BMP180;5768;51.476;7.210;2022-10-16T11:16:17;100285.00;;;21.60
11424;BMP180;5768;51.476;7.210;2022-10-16T11:21:22;100278.00;;;21.60
11424;BMP180;5768;51.476;7.210;2022-10-16T11:26:33;100288.00;;;21.90
11424;BMP180;5768;51.476;7.210;2022-10-16T11:31:39;100292.00;;;22.20
11424;BMP180;5768;51.476;7.210;2022-10-16T11:36:47;100294.00;;;22.30
11424;BMP180;5768;51.476;7.210;2022-10-16T11:41:56;100297.00;;;22.30
11424;BMP180;5768;51.476;7.210;2022-10-16T11:47:16;100297.00;;;22.50
11424;BMP180;5768;51.476;7.210;2022-10-16T11:52:28;100293.00;;;23.00
11424;BMP180;5768;51.476;7.210;2022-10-16T11:57:39;100300.00;;;23.10
11424;BMP180;5768;51.476;7.210;2022-10-16T12:02:56;100303.00;;;23.30
11424;BMP180;5768;51.476;7.210;2022-10-16T12:08:09;100314.00;;;23.60
11424;BMP180;5768;51.476;7.210;2022-10-16T12:13:34;100320.00;;;23.90
11424;BMP180;5768;51.476;7.210;2022-10-16T12:18:37;100322.00;;;24.10
11424;BMP180;5768;51.476;7.210;2022-10-16T12:23:49;100317.00;;;24.10
11424;BMP180;5768;51.476;7.210;2022-10-16T12:28:54;100314.00;;;24.30
11424;BMP180;5768;51.476;7.210;2022-10-16T12:34:02;100321.00;;;24.80
11424;BMP180;5768;51.476;7.210;2022-10-16T12:39:05;100318.00;;;25.10
11424;BMP180;5768;51.476;7.210;2022-10-16T12:44:24;100332.00;;;24.70
11424;BMP180;5768;51.476;7.210;2022-10-16T12:49:36;100333.00;;;24.70
11424;BMP180;5768;51.476;7.210;2022-10-16T12:54:39;100333.00;;;25.30
11424;BMP180;5768;51.476;7.210;2022-10-16T12:59:53;100344.00;;;24.60
11424;BMP180;5768;51.476;7.210;2022-10-16T13:05:20;100339.00;;;24.30
11424;BMP180;5768;51.476;7.210;2022-10-16T13:10:31;100345.00;;;25.50
11424;BMP180;5768;51.476;7.210;2022-10-16T13:15:55;100348.00;;;26.70
11424;BMP180;5768;51.476;7.210;2022-10-16T13:21:21;100352.00;;;27.90
11424;BMP180;5768;51.476;7.210;2022-10-16T13:26:40;100350.00;;;28.20
11424;BMP180;5768;51.476;7.210;2022-10-16T13:31:44;100348.00;;;28.10
11424;BMP180;5768;51.476;7.210;2022-10-16T13:36:49;100352.00;;;26.60
11424;BMP180;5768;51.476;7.210;2022-10-16T13:42:03;100372.00;;;25.80
11424;BMP180;5768;51.476;7.210;2022-10-16T13:47:17;100370.00;;;25.50
11424;BMP180;5768;51.476;7.210;2022-10-16T13:52:21;100367.00;;;25.60
11424;BMP180;5768;51.476;7.210;2022-10-16T13:57:24;100371.00;;;25.60
11424;BMP180;5768;51.476;7.210;2022-10-16T14:02:34;100358.00;;;25.30
11424;BMP180;5768;51.476;7.210;2022-10-16T14:07:38;100344.00;;;25.30
11424;BMP180;5768;51.476;7.210;2022-10-16T14:12:41;100352.00;;;25.80
11424;BMP180;5768;51.476;7.210;2022-10-16T14:17:50;100361.00;;;26.00
11424;BMP180;5768;51.476;7.210;2022-10-16T14:23:03;100362.00;;;27.10
11424;BMP180;5768;51.476;7.210;2022-10-16T14:28:17;100382.00;;;27.90
11424;BMP180;5768;51.476;7.210;2022-10-16T14:33:24;100375.00;;;26.40
11424;BMP180;5768;51.476;7.210;2022-10-16T14:38:26;100385.00;;;25.30
11424;BMP180;5768;51.476;7.210;2022-10-16T14:43:34;100368.00;;;24.70
11424;BMP180;5768;51.476;7.210;2022-10-16T14:48:41;100325.00;;;25.00
11424;BMP180;5768;51.476;7.210;2022-10-16T14:53:44;100357.00;;;25.90
11424;BMP180;5768;51.476;7.210;2022-10-16T14:58:46;100362.00;;;26.00
11424;BMP180;5768;51.476;7.210;2022-10-16T15:03:56;100373.00;;;26.80
11424;BMP180;5768;51.476;7.210;2022-10-16T15:08:58;100379.00;;;25.90
11424;BMP180;5768;51.476;7.210;2022-10-16T15:14:01;100363.00;;;25.30
11424;BMP180;5768;51.476;7.210;2022-10-16T15:19:05;100379.00;;;24.70
11424;BMP180;5768;51.476;7.210;2022-10-16T15:24:12;100370.00;;;24.30
11424;BMP180;5768;51.476;7.210;2022-10-16T15:29:15;100366.00;;;24.10
11424;BMP180;5768;51.476;7.210;2022-10-16T15:34:19;100370.00;;;23.90
11424;BMP180;5768;51.476;7.210;2022-10-16T15:39:21;100367.00;;;23.70
11424;BMP180;5768;51.476;7.210;2022-10-16T15:44:23;100367.00;;;23.60
11424;BMP180;5768;51.476;7.210;2022-10-16T15:49:31;100344.00;;;23.40
11424;BMP180;5768;51.476;7.210;2022-10-16T15:54:33;100347.00;;;23.20
11424;BMP180;5768;51.476;7.210;2022-10-16T15:59:36;100334.00;;;23.00
11424;BMP180;5768;51.476;7.210;2022-10-16T16:04:39;100343.00;;;22.90
11424;BMP180;5768;51.476;7.210;2022-10-16T16:09:42;100346.00;;;22.70
11424;BMP180;5768;51.476;7.210;2022-10-16T16:14:46;100343.00;;;22.60
11424;BMP180;5768;51.476;7.210;2022-10-16T16:19:51;100348.00;;;22.40
11424;BMP180;5768;51.476;7.210;2022-10-16T16:24:53;100356.00;;;22.30
11424;BMP180;5768;51.476;7.210;2022-10-16T16:29:56;100354.00;;;22.10
11424;BMP180;5768;51.476;7.210;2022-10-16T16:34:59;100348.00;;;22.00
11424;BMP180;5768;51.476;7.210;2022-10-16T16:40:04;100362.00;;;21.90
11424;BMP180;5768;51.476;7.210;2022-10-16T16:45:08;100354.00;;;21.70
11424;BMP180;5768;51.476;7.210;2022-10-16T16:50:11;100347.00;;;21.50
11424;BMP180;5768;51.476;7.210;2022-10-16T16:55:13;100369.00;;;21.40
11424;BMP180;5768;51.476;7.210;2022-10-16T17:00:16;100370.00;;;21.30
11424;BMP180;5768;51.476;7.210;2022-10-16T17:05:20;100378.00;;;21.10
11424;BMP180;5768;51.476;7.210;2022-10-16T17:10:22;100383.00;;;21.10
11424;BMP180;5768;51.476;7.210;2022-10-16T17:15:24;100382.00;;;21.10
11424;BMP180;5768;51.476;7.210;2022-10-16T17:20:27;100382.00;;;21.00
11424;BMP180;5768;51.476;7.210;2022-10-16T17:25:30;100392.00;;;20.90
11424;BMP180;5768;51.476;7.210;2022-10-16T17:30:33;100387.00;;;20.90
11424;BMP180;5768;51.476;7.210;2022-10-16T17:35:42;100391.00;;;20.80
11424;BMP180;5768;51.476;7.210;2022-10-16T17:40:45;100405.00;;;20.80
11424;BMP180;5768;51.476;7.210;2022-10-16T17:45:47;100412.00;;;20.80
11424;BMP180;5768;51.476;7.210;2022-10-16T17:50:50;100407.00;;;20.80
11424;BMP180;5768;51.476;7.210;2022-10-16T17:55:52;100402.00;;;20.80
11424;BMP180;5768;51.476;7.210;2022-10-16T18:00:59;100410.00;;;20.80
11424;BMP180;5768;51.476;7.210;2022-10-16T18:06:03;100404.00;;;20.70
11424;BMP180;5768;51.476;7.210;2022-10-16T18:11:05;100415.00;;;20.70
11424;BMP180;5768;51.476;7.210;2022-10-16T18:16:10;100413.00;;;20.70
11424;BMP180;5768;51.476;7.210;2022-10-16T18:21:18;100408.00;;;20.60
11424;BMP180;5768;51.476;7.210;2022-10-16T18:26:22;100414.00;;;20.60
11424;BMP180;5768;51.476;7.210;2022-10-16T18:31:25;100402.00;;;20.50
11424;BMP180;5768;51.476;7.210;2022-10-16T18:36:31;100399.00;;;20.50
11424;BMP180;5768;51.476;7.210;2022-10-16T18:41:35;100382.00;;;20.40
11424;BMP180;5768;51.476;7.210;2022-10-16T18:46:38;100388.00;;;20.40
11424;BMP180;5768;51.476;7.210;2022-10-16T18:51:42;100407.00;;;20.40
11424;BMP180;5768;51.476;7.210;2022-10-16T18:56:45;100405.00;;;20.40
11424;BMP180;5768;51.476;7.210;2022-10-16T19:01:48;100409.00;;;20.40
11424;BMP180;5768;51.476;7.210;2022-10-16T19:06:52;100414.00;;;20.40
11424;BMP180;5768;51.476;7.210;2022-10-16T19:11:55;100433.00;;;20.40
11424;BMP180;5768;51.476;7.210;2022-10-16T19:16:57;100459.00;;;20.40
11424;BMP180;5768;51.476;7.210;2022-10-16T19:22:01;100473.00;;;20.40
11424;BMP180;5768;51.476;7.210;2022-10-16T19:27:14;100488.00;;;20.40
11424;BMP180;5768;51.476;7.210;2022-10-16T19:32:16;100488.00;;;20.30
11424;BMP180;5768;51.476;7.210;2022-10-16T19:37:19;100472.00;;;20.20
11424;BMP180;5768;51.476;7.210;2022-10-16T19:42:25;100468.00;;;20.20
11424;BMP180;5768;51.476;7.210;2022-10-16T19:47:27;100456.00;;;20.10
11424;BMP180;5768;51.476;7.210;2022-10-16T19:52:31;100464.00;;;20.00
11424;BMP180;5768;51.476;7.210;2022-10-16T19:57:34;100471.00;;;20.00
11424;BMP180;5768;51.476;7.210;2022-10-16T20:02:37;100476.00;;;20.00
11424;BMP180;5768;51.476;7.210;2022-10-16T20:07:41;100463.00;;;20.00
11424;BMP180;5768;51.476;7.210;2022-10-16T20:12:43;100473.00;;;20.00
11424;BMP180;5768;51.476;7.210;2022-10-16T20:17:45;100457.00;;;20.00
11424;BMP180;5768;51.476;7.210;2022-10-16T20:22:48;100470.00;;;19.90
11424;BMP180;5768;51.476;7.210;2022-10-16T20:27:51;100472.00;;;19.80
11424;BMP180;5768;51.476;7.210;2022-10-16T20:32:53;100462.00;;;19.80
11424;BMP180;5768;51.476;7.210;2022-10-16T20:37:57;100472.00;;;19.70
11424;BMP180;5768;51.476;7.210;2022-10-16T20:42:59;100459.00;;;19.60
11424;BMP180;5768;51.476;7.210;2022-10-16T20:48:02;100460.00;;;19.50
11424;BMP180;5768;51.476;7.210;2022-10-16T20:53:06;100470.00;;;19.40
11424;BMP180;5768;51.476;7.210;2022-10-16T20:58:09;100469.00;;;19.30
11424;BMP180;5768;51.476;7.210;2022-10-16T21:03:12;100471.00;;;19.30
11424;BMP180;5768;51.476;7.210;2022-10-16T21:08:16;100473.00;;;19.20
11424;BMP180;5768;51.476;7.210;2022-10-16T21:13:18;100470.00;;;19.10
11424;BMP180;5768;51.476;7.210;2022-10-16T21:18:20;100463.00;;;19.00
11424;BMP180;5768;51.476;7.210;2022-10-16T21:23:24;100454.00;;;18.90
11424;BMP180;5768;51.476;7.210;2022-10-16T21:28:26;100449.00;;;18.80
11424;BMP180;5768;51.476;7.210;2022-10-16T21:33:28;100455.00;;;18.70
11424;BMP180;5768;51.476;7.210;2022-10-16T21:38:32;100448.00;;;18.70
11424;BMP180;5768;51.476;7.210;2022-10-16T21:43:34;100465.00;;;18.60
11424;BMP180;5768;51.476;7.210;2022-10-16T21:48:37;100455.00;;;18.60
11424;BMP180;5768;51.476;7.210;2022-10-16T21:53:41;100454.00;;;18.60
11424;BMP180;5768;51.476;7.210;2022-10-16T21:58:44;100450.00;;;18.50
11424;BMP180;5768;51.476;7.210;2022-10-16T22:03:47;100452.00;;;18.50
11424;BMP180;5768;51.476;7.210;2022-10-16T22:08:53;100441.00;;;18.40
11424;BMP180;5768;51.476;7.210;2022-10-16T22:13:55;100447.00;;;18.40
11424;BMP180;5768;51.476;7.210;2022-10-16T22:18:58;100435.00;;;18.40
11424;BMP180;5768;51.476;7.210;2022-10-16T22:24:04;100433.00;;;18.40
11424;BMP180;5768;51.476;7.210;2022-10-16T22:29:10;100420.00;;;18.30
11424;BMP180;5768;51.476;7.210;2022-10-16T22:34:13;100432.00;;;18.30
11424;BMP180;5768;51.476;7.210;2022-10-16T22:39:17;100425.00;;;18.30
11424;BMP180;5768;51.476;7.210;2022-10-16T22:44:19;100436.00;;;18.40
11424;BMP180;5768;51.476;7.210;2022-10-16T22:49:22;100435.00;;;18.50
11424;BMP180;5768;51.476;7.210;2022-10-16T22:54:25;100435.00;;;18.50
11424;BMP180;5768;51.476;7.210;2022-10-16T22:59:27;100432.00;;;18.60
11424;BMP180;5768;51.476;7.210;2022-10-16T23:04:31;100422.00;;;18.60
11424;BMP180;5768;51.476;7.210;2022-10-16T23:09:34;100429.00;;;18.60
11424;BMP180;5768;51.476;7.210;2022-10-16T23:14:36;100426.00;;;18.50
11424;BMP180;5768;51.476;7.210;2022-10-16T23:19:39;100426.00;;;18.50
11424;BMP180;5768;51.476;7.210;2022-10-16T23:24:42;100430.00;;;18.40
11424;BMP180;5768;51.476;7.210;2022-10-16T23:29:45;100431.00;;;18.40
11424;BMP180;5768;51.476;7.210;2022-10-16T23:34:47;100431.00;;;18.40
11424;BMP180;5768;51.476;7.210;2022-10-16T23:39:50;100429.00;;;18.30
11424;BMP180;5768;51.476;7.210;2022-10-16T23:44:53;100431.00;;;18.30
11424;BMP180;5768;51.476;7.210;2022-10-16T23:49:55;100428.00;;;18.30
11424;BMP180;5768;51.476;7.210;2022-10-16T23:54:59;100425.00;;;18.30
